Time;durP1;ratioP1;P1;durP2;ratioP2;P2;SDS_P1;SDS_P2;PMS_P1;PMS_P2;Temp;Humidity;BMP_temperature;BMP_pressure;BME280_temperature;BME280_humidity;BME280_pressure;Samples;Min_cycle;Max_cycle;Signal;HPM_P1;HPM_P2
2023/04/10 00:01:19;;;;;;;7.8;5.8;;;;;;;;;;;;;
2023/04/10 00:03:46;;;;;;;8.9;6.3;;;;;;;;;;;;;
2023/04/10 00:06:11;;;;;;;9.1;6.3;;;;;;;;;;;;;
2023/04/10 00:08:36;;;;;;;6.9;5.7;;;;;;;;;;;;;
2023/04/10 00:11:01;;;;;;;7.9;6;;;;;;;;;;;;;
2023/04/10 00:13:27;;;;;;;7.7;5.9;;;;;;;;;;;;;
2023/04/10 00:15:52;;;;;;;7.5;5.6;;;;;;;;;;;;;
2023/04/10 00:18:40;;;;;;;7.9;5.8;;;;;;;;;;;;;
2023/04/10 00:21:05;;;;;;;8.1;6.2;;;;;;;;;;;;;
2023/04/10 00:23:31;;;;;;;7.9;6;;;;;;;;;;;;;
2023/04/10 00:25:55;;;;;;;8.5;5.4;;;;;;;;;;;;;
2023/04/10 00:28:21;;;;;;;7.5;5.4;;;;;;;;;;;;;
2023/04/10 00:30:47;;;;;;;8.2;5.9;;;;;;;;;;;;;
2023/04/10 00:33:12;;;;;;;7.4;5.6;;;;;;;;;;;;;
2023/04/10 00:35:38;;;;;;;7.6;5.9;;;;;;;;;;;;;
2023/04/10 00:38:03;;;;;;;7.2;5.7;;;;;;;;;;;;;
2023/04/10 00:40:30;;;;;;;8.5;5.9;;;;;;;;;;;;;
2023/04/10 00:42:54;;;;;;;7.7;6.1;;;;;;;;;;;;;
2023/04/10 00:45:21;;;;;;;7.5;5.9;;;;;;;;;;;;;
2023/04/10 00:47:59;;;;;;;7.6;5.9;;;;;;;;;;;;;
2023/04/10 00:50:15;;;;;;;7.4;5.6;;;;;;;;;;;;;
2023/04/10 00:52:40;;;;;;;8.1;5.6;;;;;;;;;;;;;
2023/04/10 00:55:06;;;;;;;6.6;5.5;;;;;;;;;;;;;
2023/04/10 00:57:32;;;;;;;8.3;5.4;;;;;;;;;;;;;
2023/04/10 00:59:56;;;;;;;8.5;6.1;;;;;;;;;;;;;
2023/04/10 01:02:22;;;;;;;7.5;5.5;;;;;;;;;;;;;
2023/04/10 01:04:47;;;;;;;7.4;5.5;;;;;;;;;;;;;
2023/04/10 01:07:13;;;;;;;9.5;6.1;;;;;;;;;;;;;
2023/04/10 01:09:38;;;;;;;8.6;6;;;;;;;;;;;;;
2023/04/10 01:12:03;;;;;;;9;6.4;;;;;;;;;;;;;
2023/04/10 01:14:28;;;;;;;7.3;5.7;;;;;;;;;;;;;
2023/04/10 01:16:53;;;;;;;7.4;5.6;;;;;;;;;;;;;
2023/04/10 01:19:20;;;;;;;8.1;5.9;;;;;;;;;;;;;
2023/04/10 01:21:45;;;;;;;9;6;;;;;;;;;;;;;
2023/04/10 01:24:10;;;;;;;7.3;6;;;;;;;;;;;;;
2023/04/10 01:26:35;;;;;;;9.4;6.1;;;;;;;;;;;;;
2023/04/10 01:29:01;;;;;;;7.7;6;;;;;;;;;;;;;
2023/04/10 01:31:27;;;;;;;8;5.6;;;;;;;;;;;;;
2023/04/10 01:33:52;;;;;;;7.4;5.7;;;;;;;;;;;;;
2023/04/10 01:36:17;;;;;;;7.1;5.5;;;;;;;;;;;;;
2023/04/10 01:38:42;;;;;;;7.7;5.6;;;;;;;;;;;;;
2023/04/10 01:41:07;;;;;;;7;5.7;;;;;;;;;;;;;
2023/04/10 01:43:32;;;;;;;7.3;5.5;;;;;;;;;;;;;
2023/04/10 01:45:58;;;;;;;7.5;5.8;;;;;;;;;;;;;
2023/04/10 01:48:23;;;;;;;9;6.2;;;;;;;;;;;;;
2023/04/10 01:50:49;;;;;;;7;5.8;;;;;;;;;;;;;
2023/04/10 01:53:14;;;;;;;6.5;5.1;;;;;;;;;;;;;
2023/04/10 01:55:42;;;;;;;8.5;6.3;;;;;;;;;;;;;
2023/04/10 01:58:08;;;;;;;8.2;5.5;;;;;;;;;;;;;
2023/04/10 02:00:33;;;;;;;8.6;6.5;;;;;;;;;;;;;
2023/04/10 02:02:59;;;;;;;7.3;5.4;;;;;;;;;;;;;
2023/04/10 02:05:24;;;;;;;8.7;6.2;;;;;;;;;;;;;
2023/04/10 02:07:49;;;;;;;6.9;5.4;;;;;;;;;;;;;
2023/04/10 02:10:14;;;;;;;7.3;5.4;;;;;;;;;;;;;
2023/04/10 02:12:40;;;;;;;8.5;6;;;;;;;;;;;;;
2023/04/10 02:15:07;;;;;;;7.5;5.5;;;;;;;;;;;;;
2023/04/10 02:17:31;;;;;;;7.6;5.6;;;;;;;;;;;;;
2023/04/10 02:19:56;;;;;;;7.1;5.6;;;;;;;;;;;;;
2023/04/10 02:22:22;;;;;;;7.2;5.6;;;;;;;;;;;;;
2023/04/10 02:24:47;;;;;;;7.2;5.5;;;;;;;;;;;;;
2023/04/10 02:27:12;;;;;;;8.6;5.9;;;;;;;;;;;;;
2023/04/10 02:29:38;;;;;;;7.3;6;;;;;;;;;;;;;
2023/04/10 02:32:03;;;;;;;6.7;5.5;;;;;;;;;;;;;
2023/04/10 02:34:28;;;;;;;7.7;5.9;;;;;;;;;;;;;
2023/04/10 02:36:53;;;;;;;7.6;5.5;;;;;;;;;;;;;
2023/04/10 02:39:20;;;;;;;7.6;6;;;;;;;;;;;;;
2023/04/10 02:41:45;;;;;;;6.8;5.3;;;;;;;;;;;;;
2023/04/10 02:44:11;;;;;;;6.6;5.1;;;;;;;;;;;;;
2023/04/10 02:46:36;;;;;;;7.7;5.5;;;;;;;;;;;;;
2023/04/10 02:49:01;;;;;;;6.6;5.1;;;;;;;;;;;;;
2023/04/10 02:51:27;;;;;;;7.7;5.8;;;;;;;;;;;;;
2023/04/10 02:53:53;;;;;;;6.7;5.2;;;;;;;;;;;;;
2023/04/10 02:56:19;;;;;;;8.9;7.8;;;;;;;;;;;;;
2023/04/10 02:58:46;;;;;;;7.2;5.4;;;;;;;;;;;;;
2023/04/10 03:01:09;;;;;;;7;5.9;;;;;;;;;;;;;
2023/04/10 03:03:35;;;;;;;7.4;5.5;;;;;;;;;;;;;
2023/04/10 03:06:00;;;;;;;6.9;5.9;;;;;;;;;;;;;
2023/04/10 03:08:26;;;;;;;6.8;5.4;;;;;;;;;;;;;
2023/04/10 03:10:52;;;;;;;6.8;5.6;;;;;;;;;;;;;
2023/04/10 03:13:18;;;;;;;6.6;5.5;;;;;;;;;;;;;
2023/04/10 03:15:44;;;;;;;7;5.4;;;;;;;;;;;;;
2023/04/10 03:18:09;;;;;;;7.9;5.4;;;;;;;;;;;;;
2023/04/10 03:20:35;;;;;;;6.7;5.5;;;;;;;;;;;;;
2023/04/10 03:23:00;;;;;;;7.6;5.6;;;;;;;;;;;;;
2023/04/10 03:25:26;;;;;;;8.5;6.4;;;;;;;;;;;;;
2023/04/10 03:27:52;;;;;;;7.9;5.7;;;;;;;;;;;;;
2023/04/10 03:30:17;;;;;;;7.6;5.5;;;;;;;;;;;;;
2023/04/10 03:32:43;;;;;;;7.7;5.9;;;;;;;;;;;;;
2023/04/10 03:35:08;;;;;;;7.5;5.7;;;;;;;;;;;;;
2023/04/10 03:37:35;;;;;;;7.3;5.5;;;;;;;;;;;;;
2023/04/10 03:40:00;;;;;;;6.5;5.3;;;;;;;;;;;;;
2023/04/10 03:42:25;;;;;;;6.9;5.3;;;;;;;;;;;;;
2023/04/10 03:44:50;;;;;;;5.8;4.9;;;;;;;;;;;;;
2023/04/10 03:47:16;;;;;;;7.7;5.6;;;;;;;;;;;;;
2023/04/10 03:49:41;;;;;;;7.2;5.7;;;;;;;;;;;;;
2023/04/10 03:52:08;;;;;;;51.8;29.2;;;;;;;;;;;;;
2023/04/10 03:54:33;;;;;;;9.9;7.1;;;;;;;;;;;;;
2023/04/10 03:56:58;;;;;;;11.4;7.1;;;;;;;;;;;;;
2023/04/10 03:59:23;;;;;;;8.9;6;;;;;;;;;;;;;
2023/04/10 04:02:36;;;;;;;8.2;5.9;;;;;;;0.96;91.43848;943.0122;;;;
2023/04/10 04:07:31;;;;;;;7.5;5.9;;;;;;;0.81;91.47363;942.9777;;;;
2023/04/10 04:09:57;;;;;;;7.2;5.7;;;;;;;0.78;91.5459;942.9686;;;;
2023/04/10 04:12:22;;;;;;;8.5;5.9;;;;;;;0.76;91.62012;942.9342;;;;
2023/04/10 04:14:47;;;;;;;7.3;5.5;;;;;;;0.74;91.67188;942.9309;;;;
2023/04/10 04:17:12;;;;;;;19.1;15.7;;;;;;;0.77;91.55566;942.9283;;;;
2023/04/10 04:19:38;;;;;;;7;5.8;;;;;;;0.85;91.23828;942.9548;;;;
2023/04/10 04:22:03;;;;;;;7.5;5.9;;;;;;;0.8;91.78418;942.9574;;;;
2023/04/10 04:24:35;;;;;;;7.7;5.7;;;;;;;0.8;91.99609;942.955;;;;
2023/04/10 04:27:00;;;;;;;11.9;10.3;;;;;;;0.76;92.10938;942.9089;;;;
2023/04/10 04:29:30;;;;;;;8;5.7;;;;;;;0.72;92.18164;943.0192;;;;
2023/04/10 04:31:59;;;;;;;7.5;5.4;;;;;;;0.63;92.49414;943.0673;;;;
2023/04/10 04:34:28;;;;;;;8.5;7;;;;;;;0.55;93.0459;943.0281;;;;
2023/04/10 04:36:53;;;;;;;7.4;5.6;;;;;;;0.54;93.38965;943.0066;;;;
2023/04/10 04:39:22;;;;;;;7.6;5.8;;;;;;;0.51;93.68262;943.0964;;;;
2023/04/10 04:41:46;;;;;;;8;5.9;;;;;;;0.54;93.43359;943.1153;;;;
2023/04/10 04:44:12;;;;;;;9.8;6.1;;;;;;;0.6;93.09082;943.1124;;;;
2023/04/10 04:46:37;;;;;;;8.3;5.9;;;;;;;0.57;93.07422;943.0461;;;;
2023/04/10 04:49:03;;;;;;;8;5.7;;;;;;;0.6;93.33691;943.092;;;;
2023/04/10 04:51:29;;;;;;;8.5;5.8;;;;;;;0.7;93.58203;943.1275;;;;
2023/04/10 04:53:55;;;;;;;8.7;5.9;;;;;;;0.75;93.35938;943.0905;;;;
2023/04/10 04:56:20;;;;;;;8.9;6;;;;;;;0.81;92.94727;943.1614;;;;
2023/04/10 04:58:47;;;;;;;7.2;5.3;;;;;;;0.85;92.61133;943.0978;;;;
2023/04/10 05:01:12;;;;;;;7.8;5.7;;;;;;;0.79;92.49707;943.1757;;;;
2023/04/10 05:03:44;;;;;;;7.6;6.1;;;;;;;0.82;91.85742;943.1761;;;;
2023/04/10 05:06:11;;;;;;;7.3;5.9;;;;;;;0.77;92.02441;943.1994;;;;
2023/04/10 05:08:36;;;;;;;8.5;6.3;;;;;;;0.72;92.21289;943.1214;;;;
2023/04/10 05:11:04;;;;;;;9.6;6.1;;;;;;;0.71;92.14648;943.0939;;;;
2023/04/10 05:13:29;;;;;;;7.3;5.8;;;;;;;0.8;91.81738;943.1264;;;;
2023/04/10 05:16:02;;;;;;;9.1;6.2;;;;;;;0.77;91.81152;943.1517;;;;
2023/04/10 05:22:02;;;;;;;7;5.8;;;;;;;0.61;92.24512;943.204;;;;
2023/04/10 05:24:27;;;;;;;7.8;6.3;;;;;;;0.66;92.48047;943.2103;;;;
2023/04/10 05:26:56;;;;;;;8.3;6.5;;;;;;;0.71;92.37891;943.198;;;;
2023/04/10 05:29:22;;;;;;;8.5;6.3;;;;;;;0.85;91.67383;943.1862;;;;
2023/04/10 05:31:50;;;;;;;7.6;6.1;;;;;;;0.87;91.84277;943.165;;;;
2023/04/10 05:36:45;;;;;;;9.5;5.9;;;;;;;0.91;91.68555;943.1518;;;;
2023/04/10 05:39:12;;;;;;;8.3;5.6;;;;;;;0.95;91.91797;943.2753;;;;
2023/04/10 05:41:36;;;;;;;11.3;9.2;;;;;;;1.52;92.11816;943.1191;;;;
2023/04/10 05:44:02;;;;;;;6.9;5.4;;;;;;;2.66;88.95996;943.145;;;;
2023/04/10 05:46:27;;;;;;;5.1;4.2;;;;;;;3.49;83.84375;943.1172;;;;
2023/04/10 05:48:54;;;;;;;5.5;4.1;;;;;;;3.68;80.65625;943.1542;;;;
2023/04/10 05:51:19;;;;;;;6.6;4.4;;;;;;;4.54;77.96094;943.1617;;;;
2023/04/10 05:53:46;;;;;;;6.1;4.4;;;;;;;5.98;72.57324;943.1975;;;;
2023/04/10 05:56:11;;;;;;;6.2;4.1;;;;;;;6.42;70.6123;943.1498;;;;
2023/04/10 05:58:39;;;;;;;4.7;3.9;;;;;;;7.67;64.87598;943.1666;;;;
2023/04/10 06:01:04;;;;;;;4.1;3.7;;;;;;;7.23;65.5127;943.1717;;;;
2023/04/10 06:03:30;;;;;;;6.4;4.2;;;;;;;7.47;63.74609;943.2131;;;;
2023/04/10 06:05:54;;;;;;;6.4;4.7;;;;;;;6.86;65.76074;943.2128;;;;
2023/04/10 06:08:23;;;;;;;8.4;5.8;;;;;;;6.8;66.0459;943.1711;;;;
2023/04/10 06:10:48;;;;;;;7.3;5.5;;;;;;;7.65;64.46484;943.2358;;;;
2023/04/10 06:13:13;;;;;;;5.1;4.2;;;;;;;7.83;62.25684;943.2095;;;;
2023/04/10 06:15:39;;;;;;;5.6;4.3;;;;;;;8.04;61.75195;943.2361;;;;
2023/04/10 06:18:06;;;;;;;6.1;4.8;;;;;;;8.36;61.16309;943.1071;;;;
2023/04/10 06:20:31;;;;;;;4.7;3.7;;;;;;;9.18;58.54785;943.1682;;;;
2023/04/10 06:22:57;;;;;;;4.2;3.7;;;;;;;10.47;54.64844;943.0204;;;;
2023/04/10 06:25:23;;;;;;;3.5;3;;;;;;;10.75;51.9873;943.0397;;;;
2023/04/10 06:27:51;;;;;;;3.5;2.9;;;;;;;9.77;53.45313;943.0154;;;;
2023/04/10 06:30:16;;;;;;;3.8;3.2;;;;;;;11.27;51.03223;942.9608;;;;
2023/04/10 06:32:43;;;;;;;3;2.7;;;;;;;11.74;49.67773;942.8639;;;;
2023/04/10 06:35:09;;;;;;;3.1;2.8;;;;;;;10.59;49.77539;942.8934;;;;
2023/04/10 06:37:36;;;;;;;4.5;3.3;;;;;;;10.83;50.38574;942.8254;;;;
2023/04/10 06:40:01;;;;;;;3.2;2.9;;;;;;;11.01;49.88086;942.8464;;;;
2023/04/10 06:42:28;;;;;;;4;3.6;;;;;;;11.79;49.50098;942.8002;;;;
2023/04/10 06:44:54;;;;;;;3.3;3;;;;;;;12.9;45.77051;942.7753;;;;
2023/04/10 06:47:20;;;;;;;3.2;2.8;;;;;;;13.49;44.16602;942.7252;;;;
2023/04/10 06:50:45;;;;;;;3.9;2.8;;;;;;;11.39;48.55273;942.7137;;;;
2023/04/10 06:53:14;;;;;;;3.2;2.6;;;;;;;10.17;50.34375;942.5988;;;;
2023/04/10 06:55:39;;;;;;;3.5;3.2;;;;;;;9.22;54.22852;942.6316;;;;
2023/04/10 06:58:05;;;;;;;2.8;2.6;;;;;;;9.77;53.22559;942.6329;;;;
2023/04/10 07:00:30;;;;;;;4.7;3.5;;;;;;;9.75;53.63281;942.5569;;;;
2023/04/10 07:02:57;;;;;;;3.1;2.8;;;;;;;12.05;48.55762;942.5148;;;;
2023/04/10 07:05:23;;;;;;;3.7;2.7;;;;;;;12.45;46.22852;942.5049;;;;
2023/04/10 07:07:50;;;;;;;3.1;2.5;;;;;;;12.99;48.0293;942.5313;;;;
2023/04/10 07:10:15;;;;;;;2.9;2.6;;;;;;;14.77;43.36133;942.4423;;;;
2023/04/10 07:13:21;;;;;;;3.7;2.4;;;;;;;12.87;43.48242;942.4641;;;;
2023/04/10 07:15:46;;;;;;;2.5;2.2;;;;;;;11.33;46.88574;942.4904;;;;
2023/04/10 07:18:13;;;;;;;3.5;2.3;;;;;;;11.16;49.04102;942.3867;;;;
2023/04/10 07:20:38;;;;;;;2.6;2.2;;;;;;;11.94;47.19238;942.4478;;;;
2023/04/10 07:23:07;;;;;;;2.6;2.4;;;;;;;12.21;46.61523;942.4199;;;;
2023/04/10 07:25:32;;;;;;;2.9;2.6;;;;;;;13.12;44.54199;942.4063;;;;
2023/04/10 07:28:01;;;;;;;3.7;2.7;;;;;;;11.98;46.64746;942.3653;;;;
2023/04/10 07:30:26;;;;;;;3;2.7;;;;;;;13.52;43.13379;942.3309;;;;
2023/04/10 07:32:56;;;;;;;3.5;2.8;;;;;;;12.57;44.08496;942.3134;;;;
2023/04/10 07:35:20;;;;;;;3.6;2.9;;;;;;;11.8;46.52637;942.257;;;;
2023/04/10 07:37:50;;;;;;;3.4;2.7;;;;;;;12.83;43.97266;942.2433;;;;
2023/04/10 07:40:11;;;;;;;3.6;2.7;;;;;;;12.75;44.85938;942.1969;;;;
2023/04/10 07:42:40;;;;;;;3.7;3.1;;;;;;;14.43;42.60254;942.2292;;;;
2023/04/10 07:45:05;;;;;;;3.2;2.7;;;;;;;14.98;39.86426;942.1827;;;;
2023/04/10 07:47:31;;;;;;;3.5;3;;;;;;;14.56;40.74805;942.2127;;;;
2023/04/10 07:49:57;;;;;;;3.7;2.5;;;;;;;15.57;38.3584;942.1404;;;;
2023/04/10 07:52:24;;;;;;;2.7;2.3;;;;;;;16.79;38.30273;942.1211;;;;
2023/04/10 07:54:49;;;;;;;2.5;2.3;;;;;;;15.73;36.7666;942.1172;;;;
2023/04/10 07:57:16;;;;;;;2.7;2.5;;;;;;;16.14;37.0791;942.1381;;;;
2023/04/10 07:59:41;;;;;;;3.7;2.6;;;;;;;16.37;35.90625;942.0204;;;;
2023/04/10 08:02:09;;;;;;;3.8;2.6;;;;;;;18.17;34.77637;942.0496;;;;
2023/04/10 08:04:34;;;;;;;3.2;2.5;;;;;;;18.36;33.93066;942.0439;;;;
2023/04/10 08:07:00;;;;;;;3.3;2.5;;;;;;;18.02;32.92871;942.0595;;;;
2023/04/10 08:09:26;;;;;;;2.6;2.4;;;;;;;16.1;34.64746;942.0034;;;;
2023/04/10 08:11:52;;;;;;;2.5;2.1;;;;;;;16.81;33.77539;941.9971;;;;
2023/04/10 08:14:17;;;;;;;2.6;2.2;;;;;;;15.95;34.77441;941.9252;;;;
2023/04/10 08:16:44;;;;;;;2;1.8;;;;;;;16.22;34.95703;941.9587;;;;
2023/04/10 08:19:09;;;;;;;2.1;1.9;;;;;;;15.4;36.17383;941.8798;;;;
2023/04/10 08:21:34;;;;;;;2.2;2;;;;;;;17.12;33.11719;941.8894;;;;
2023/04/10 08:24:00;;;;;;;1.6;1.5;;;;;;;16.23;33.08398;941.88;;;;
2023/04/10 08:26:25;;;;;;;2.4;2;;;;;;;16.88;31.31445;941.8801;;;;
2023/04/10 08:28:51;;;;;;;2.3;1.8;;;;;;;15.87;34.09766;941.863;;;;
2023/04/10 08:31:16;;;;;;;1.7;1.6;;;;;;;16.19;33.55469;941.8301;;;;
2023/04/10 08:33:43;;;;;;;1.9;1.7;;;;;;;16.07;31.5459;941.8718;;;;
2023/04/10 08:36:08;;;;;;;2.1;1.9;;;;;;;18.11;31.34375;941.8474;;;;
2023/04/10 08:38:34;;;;;;;1.4;1.3;;;;;;;19.26;29.36426;941.7816;;;;
2023/04/10 08:40:59;;;;;;;1.6;1.5;;;;;;;22.3;25.74316;941.7919;;;;
2023/04/10 08:43:27;;;;;;;1.7;1.6;;;;;;;23.31;25.12012;941.6978;;;;
2023/04/10 08:45:52;;;;;;;1.6;1.5;;;;;;;21.96;24.97363;941.7759;;;;
2023/04/10 08:48:18;;;;;;;1.4;1.3;;;;;;;23.71;23.00098;941.6334;;;;
2023/04/10 08:50:44;;;;;;;1.5;1.4;;;;;;;25.14;23.0752;941.6945;;;;
2023/04/10 08:53:08;;;;;;;1.4;1.3;;;;;;;25.65;19.98145;941.6225;;;;
2023/04/10 08:55:36;;;;;;;1.5;1.4;;;;;;;24.97;23.53809;941.6319;;;;
2023/04/10 08:58:01;;;;;;;1.6;1.5;;;;;;;24.99;21.85156;941.5945;;;;
2023/04/10 09:00:30;;;;;;;1.5;1.4;;;;;;;24.8;21.64258;941.6165;;;;
2023/04/10 09:02:56;;;;;;;1.5;1.4;;;;;;;26.02;20.84961;941.5217;;;;
2023/04/10 09:05:19;;;;;;;1.6;1.5;;;;;;;25.17;21.61328;941.5286;;;;
2023/04/10 09:07:44;;;;;;;1.5;1.4;;;;;;;24.97;22.51172;941.5787;;;;
2023/04/10 09:10:11;;;;;;;1.5;1.4;;;;;;;25.09;21.43164;941.4725;;;;
2023/04/10 09:12:36;;;;;;;1.6;1.5;;;;;;;26.3;21.13477;941.4398;;;;
2023/04/10 09:15:01;;;;;;;1.3;1.2;;;;;;;24.73;19.10352;941.4781;;;;
2023/04/10 09:17:29;;;;;;;1.6;1.2;;;;;;;21.91;22.88477;941.4783;;;;
2023/04/10 09:19:54;;;;;;;1.2;1.1;;;;;;;23.05;21.99219;941.3879;;;;
2023/04/10 09:22:20;;;;;;;1.7;1.2;;;;;;;24.8;21.21777;941.3665;;;;
2023/04/10 09:24:48;;;;;;;1.1;1.1;;;;;;;22.84;23.40234;941.3045;;;;
2023/04/10 09:27:13;;;;;;;1.3;1.2;;;;;;;21.94;21.96094;941.3167;;;;
2023/04/10 09:29:38;;;;;;;1.3;1.2;;;;;;;19.36;23.98828;941.283;;;;
2023/04/10 09:32:03;;;;;;;1.5;1.4;;;;;;;18.89;26.0459;941.2977;;;;
2023/04/10 09:34:28;;;;;;;1.3;1.1;;;;;;;18.44;25.49609;941.3293;;;;
2023/04/10 09:36:53;;;;;;;1.3;0.9;;;;;;;18.74;26.67676;941.2266;;;;
2023/04/10 09:39:21;;;;;;;1.2;1.1;;;;;;;21.08;24.44434;941.2128;;;;
2023/04/10 09:41:46;;;;;;;1.2;1.1;;;;;;;21.41;22.20313;941.2215;;;;
2023/04/10 09:44:13;;;;;;;0.9;0.9;;;;;;;21.74;21.82129;941.2081;;;;
2023/04/10 09:46:38;;;;;;;0.8;0.8;;;;;;;21.66;22.84863;941.1713;;;;
2023/04/10 09:49:06;;;;;;;0.8;0.8;;;;;;;22;21.97559;941.1049;;;;
2023/04/10 09:51:28;;;;;;;1.9;1;;;;;;;22.22;21.00098;941.0355;;;;
2023/04/10 09:53:54;;;;;;;0.8;0.8;;;;;;;21.39;21.71094;941.0602;;;;
2023/04/10 09:56:20;;;;;;;1;0.9;;;;;;;21.49;23.27344;941.0623;;;;
2023/04/10 09:58:49;;;;;;;0.8;0.8;;;;;;;21.97;20.47363;941.0142;;;;
2023/04/10 10:01:16;;;;;;;1.1;1;;;;;;;22.25;21.96484;940.9789;;;;
2023/04/10 10:03:41;;;;;;;1.2;1.1;;;;;;;22.07;21.69727;940.9373;;;;
2023/04/10 10:06:11;;;;;;;0.9;0.9;;;;;;;22.24;22.98438;940.9151;;;;
2023/04/10 10:08:36;;;;;;;0.9;0.9;;;;;;;23.47;21.73047;940.843;;;;
2023/04/10 10:11:01;;;;;;;1.2;1;;;;;;;23.05;21.35742;940.772;;;;
2023/04/10 10:13:26;;;;;;;0.9;0.9;;;;;;;23.06;22.95605;940.767;;;;
2023/04/10 10:15:52;;;;;;;1.3;1.1;;;;;;;22.54;22.23633;940.6443;;;;
2023/04/10 10:18:16;;;;;;;1;0.9;;;;;;;21.78;22.65527;940.6959;;;;
2023/04/10 10:20:41;;;;;;;0.9;0.9;;;;;;;23.11;22.1709;940.6914;;;;
2023/04/10 10:23:06;;;;;;;1.4;1.1;;;;;;;24.26;20.44922;940.6919;;;;
2023/04/10 10:25:33;;;;;;;0.8;0.8;;;;;;;23.31;20.64063;940.5911;;;;
2023/04/10 10:27:58;;;;;;;1.6;0.9;;;;;;;22.98;21.14258;940.5112;;;;
2023/04/10 10:30:25;;;;;;;0.9;0.9;;;;;;;23.78;20.94531;940.4996;;;;
2023/04/10 10:32:50;;;;;;;1.5;1;;;;;;;24.26;19.97852;940.4924;;;;
2023/04/10 10:35:17;;;;;;;0.9;0.9;;;;;;;24.65;20.5625;940.4324;;;;
2023/04/10 10:37:44;;;;;;;1;1;;;;;;;25.49;19.77344;940.3502;;;;
2023/04/10 10:40:13;;;;;;;0.9;0.9;;;;;;;25.8;19.8584;940.3106;;;;
2023/04/10 10:42:38;;;;;;;0.9;0.9;;;;;;;24.39;19.84277;940.3636;;;;
2023/04/10 10:45:03;;;;;;;0.8;0.8;;;;;;;25.74;19.11133;940.2766;;;;
2023/04/10 10:47:28;;;;;;;1.2;1.1;;;;;;;26.24;19.07324;940.295;;;;
2023/04/10 10:49:54;;;;;;;0.8;0.8;;;;;;;26.66;18.73535;940.3077;;;;
2023/04/10 10:52:18;;;;;;;0.8;0.8;;;;;;;26.43;19.21094;940.2258;;;;
2023/04/10 10:54:43;;;;;;;1.3;1;;;;;;;26.73;17.95703;940.1902;;;;
2023/04/10 10:57:08;;;;;;;1.2;1.1;;;;;;;26.79;18.48047;940.097;;;;
2023/04/10 10:59:33;;;;;;;0.8;0.8;;;;;;;27.47;17.53516;940.0643;;;;
2023/04/10 11:02:00;;;;;;;1.4;1.2;;;;;;;27.05;19.49902;940.0706;;;;
2023/04/10 11:04:25;;;;;;;0.9;0.9;;;;;;;26.77;19.5459;940.0826;;;;
2023/04/10 11:06:51;;;;;;;1.1;1;;;;;;;27.84;17.97754;940.0736;;;;
2023/04/10 11:09:15;;;;;;;1.2;1.1;;;;;;;27.66;17.53125;940.0363;;;;
2023/04/10 11:11:40;;;;;;;1;0.9;;;;;;;28.56;17.58984;939.9607;;;;
2023/04/10 11:14:06;;;;;;;0.8;0.8;;;;;;;28.58;17.44824;939.9642;;;;
2023/04/10 11:16:32;;;;;;;1.2;1.1;;;;;;;27.96;17.35254;939.8786;;;;
2023/04/10 11:18:57;;;;;;;1;0.9;;;;;;;28.44;16.39648;939.861;;;;
2023/04/10 11:21:25;;;;;;;0.7;0.7;;;;;;;28.94;17.60547;939.7612;;;;
2023/04/10 11:23:49;;;;;;;1.1;1;;;;;;;29.05;16.2168;939.7606;;;;
2023/04/10 11:26:14;;;;;;;1.1;0.9;;;;;;;29.4;16.35938;939.7341;;;;
2023/04/10 11:28:39;;;;;;;1;0.9;;;;;;;29.74;15.47754;939.7449;;;;
2023/04/10 11:31:05;;;;;;;0.6;0.6;;;;;;;30.27;14.21875;939.7366;;;;
2023/04/10 11:33:30;;;;;;;0.8;0.8;;;;;;;30.36;15.51074;939.6041;;;;
2023/04/10 11:35:56;;;;;;;0.7;0.7;;;;;;;31.06;14.51855;939.5691;;;;
2023/04/10 11:38:21;;;;;;;0.9;0.9;;;;;;;31.4;14.5293;939.5578;;;;
2023/04/10 11:40:47;;;;;;;0.7;0.7;;;;;;;30.52;16.14941;939.5417;;;;
2023/04/10 11:43:12;;;;;;;0.9;0.8;;;;;;;29.16;16.94629;939.5761;;;;
2023/04/10 11:45:37;;;;;;;0.8;0.8;;;;;;;29.67;15.07031;939.5159;;;;
2023/04/10 11:48:41;;;;;;;0.9;0.9;;;;;;;30.18;15.57617;939.4208;;;;
2023/04/10 11:51:12;;;;;;;0.8;0.8;;;;;;;29.77;16.38477;939.4514;;;;
2023/04/10 11:53:41;;;;;;;0.7;0.7;;;;;;;28.88;15.74609;939.4182;;;;
2023/04/10 11:56:07;;;;;;;1.1;1;;;;;;;28.52;16.7793;939.4092;;;;
2023/04/10 11:58:31;;;;;;;0.9;0.9;;;;;;;28.73;16.79883;939.3339;;;;
2023/04/10 12:00:57;;;;;;;0.7;0.7;;;;;;;29.53;15.68555;939.3466;;;;
2023/04/10 12:03:22;;;;;;;0.9;0.9;;;;;;;30.02;14.7002;939.3181;;;;
2023/04/10 12:05:47;;;;;;;0.9;0.9;;;;;;;29.48;16.80371;939.3215;;;;
2023/04/10 12:08:14;;;;;;;0.8;0.8;;;;;;;29.23;15.06738;939.2403;;;;
2023/04/10 12:10:39;;;;;;;0.8;0.8;;;;;;;27.65;16.45117;939.2964;;;;
2023/04/10 12:13:05;;;;;;;0.9;0.8;;;;;;;28.33;15.57227;939.1902;;;;
2023/04/10 12:15:37;;;;;;;0.8;0.8;;;;;;;28.46;16.02832;939.2181;;;;
2023/04/10 12:18:00;;;;;;;0.7;0.7;;;;;;;28.67;15.91699;939.2034;;;;
2023/04/10 12:20:27;;;;;;;0.9;0.9;;;;;;;27.18;18.10547;939.2015;;;;
2023/04/10 12:22:51;;;;;;;0.8;0.8;;;;;;;28.3;17.23535;939.2322;;;;
2023/04/10 12:25:19;;;;;;;0.9;0.9;;;;;;;27.3;17.8252;939.2502;;;;
2023/04/10 12:27:45;;;;;;;1.3;1;;;;;;;27.11;17.83008;939.245;;;;
2023/04/10 12:30:11;;;;;;;1.2;0.8;;;;;;;27.27;19.17578;939.2043;;;;
2023/04/10 12:32:36;;;;;;;1.7;0.9;;;;;;;26.62;18.66309;939.1797;;;;
2023/04/10 12:35:02;;;;;;;1;0.9;;;;;;;26.34;20.29688;939.1273;;;;
2023/04/10 12:37:28;;;;;;;1.1;1;;;;;;;25.54;21.37012;939.1395;;;;
2023/04/10 12:39:54;;;;;;;0.8;0.8;;;;;;;25.42;21.30566;939.0201;;;;
2023/04/10 12:42:19;;;;;;;1.1;1;;;;;;;26.27;19.70117;939.0012;;;;
2023/04/10 12:44:45;;;;;;;1;1;;;;;;;27.18;19.48145;939.0641;;;;
2023/04/10 12:47:10;;;;;;;1;1;;;;;;;26.59;19.15918;939.0309;;;;
2023/04/10 12:49:35;;;;;;;0.8;0.8;;;;;;;25.76;20.05762;939.0927;;;;
2023/04/10 12:52:00;;;;;;;2;1;;;;;;;24.55;20.70996;939.1337;;;;
2023/04/10 12:54:26;;;;;;;1.1;1;;;;;;;24.1;22.02051;939.1135;;;;
2023/04/10 12:56:52;;;;;;;1;1;;;;;;;23.4;22.51465;939.0801;;;;
2023/04/10 12:59:17;;;;;;;0.8;0.7;;;;;;;23.08;21.38281;938.9911;;;;
2023/04/10 13:01:43;;;;;;;1.1;1;;;;;;;23.13;23.12305;938.9943;;;;
2023/04/10 13:04:10;;;;;;;0.8;0.8;;;;;;;23.3;21.74609;939.0137;;;;
2023/04/10 13:06:35;;;;;;;1;0.9;;;;;;;23.28;25.84668;938.9855;;;;
2023/04/10 13:09:01;;;;;;;0.8;0.8;;;;;;;23.72;22.11914;938.9952;;;;
2023/04/10 13:11:25;;;;;;;1.2;1.1;;;;;;;23.68;22.74121;938.9892;;;;
2023/04/10 13:13:53;;;;;;;1;1;;;;;;;22.86;24.30762;939.0025;;;;
2023/04/10 13:16:18;;;;;;;1.1;1;;;;;;;22.42;25.18652;938.9667;;;;
2023/04/10 13:18:45;;;;;;;1.1;1;;;;;;;22.71;24.33496;938.9432;;;;
2023/04/10 13:21:10;;;;;;;1.8;0.9;;;;;;;21.94;25.54688;938.8688;;;;
2023/04/10 13:23:36;;;;;;;1.1;1;;;;;;;21.74;24.05859;938.875;;;;
2023/04/10 13:26:01;;;;;;;1;0.9;;;;;;;21.97;24.92676;938.8337;;;;
2023/04/10 13:28:27;;;;;;;0.9;0.9;;;;;;;21.62;25.59863;938.7699;;;;
2023/04/10 13:30:52;;;;;;;0.9;0.9;;;;;;;21.29;26.35156;938.7551;;;;
2023/04/10 13:33:18;;;;;;;1.4;1.2;;;;;;;20.74;26.03906;938.7508;;;;
2023/04/10 13:35:43;;;;;;;1.9;1;;;;;;;20.15;27.39258;938.7128;;;;
2023/04/10 13:38:11;;;;;;;1.1;1;;;;;;;19.64;28.23535;938.6631;;;;
2023/04/10 13:40:36;;;;;;;1.1;1;;;;;;;19.3;28.99316;938.6802;;;;
2023/04/10 13:43:01;;;;;;;1.3;1;;;;;;;19.58;27.4043;938.623;;;;
2023/04/10 13:45:26;;;;;;;1;0.9;;;;;;;19.69;28.13379;938.6222;;;;
2023/04/10 13:47:52;;;;;;;1.3;0.9;;;;;;;19.84;27.82813;938.605;;;;
2023/04/10 13:50:17;;;;;;;1.2;1.1;;;;;;;19.82;27.79199;938.5689;;;;
2023/04/10 13:52:43;;;;;;;1.1;1;;;;;;;19.66;28.3877;938.5552;;;;
2023/04/10 13:55:09;;;;;;;1.4;1.2;;;;;;;19.73;28.10059;938.6091;;;;
2023/04/10 13:57:37;;;;;;;1;0.9;;;;;;;19.46;28.83008;938.5109;;;;
2023/04/10 14:00:03;;;;;;;1.6;1.2;;;;;;;19.06;30.63184;938.4877;;;;
2023/04/10 14:02:32;;;;;;;1.3;1.1;;;;;;;18.6;30.49512;938.4587;;;;
2023/04/10 14:05:00;;;;;;;1.1;1;;;;;;;18.69;31.50098;938.3605;;;;
2023/04/10 14:07:25;;;;;;;1.2;1.1;;;;;;;18.12;33.86621;938.338;;;;
2023/04/10 14:09:52;;;;;;;3.1;1.1;;;;;;;17.96;34.05176;938.2819;;;;
2023/04/10 14:12:18;;;;;;;1.4;1.3;;;;;;;17.84;33.24023;938.3663;;;;
2023/04/10 14:14:45;;;;;;;1.1;1;;;;;;;17.69;34.18066;938.3365;;;;
2023/04/10 14:17:10;;;;;;;1.1;1;;;;;;;17.97;31.8457;938.2969;;;;
2023/04/10 14:19:40;;;;;;;1.2;1.1;;;;;;;18.07;34.88477;938.2098;;;;
2023/04/10 14:22:08;;;;;;;1.2;1.1;;;;;;;18.08;31.30664;938.151;;;;
2023/04/10 14:24:33;;;;;;;0.9;0.9;;;;;;;18.09;32.26074;938.1885;;;;
2023/04/10 14:27:00;;;;;;;1.2;1.1;;;;;;;18;30.83594;938.1965;;;;
2023/04/10 14:29:24;;;;;;;1.1;1.1;;;;;;;18.06;31.30566;938.2028;;;;
2023/04/10 14:31:50;;;;;;;1.7;1.2;;;;;;;17.97;30.9502;938.1545;;;;
2023/04/10 14:34:16;;;;;;;1.3;1.2;;;;;;;17.87;31.94238;938.2392;;;;
2023/04/10 14:36:42;;;;;;;1.3;1.2;;;;;;;17.86;31.87207;938.2498;;;;
2023/04/10 14:39:07;;;;;;;1.3;1.2;;;;;;;17.77;31.7959;938.2022;;;;
2023/04/10 14:41:33;;;;;;;1.2;1.1;;;;;;;17.68;30.96582;938.1747;;;;
2023/04/10 14:43:58;;;;;;;1.3;1.2;;;;;;;17.77;31.66797;938.1924;;;;
2023/04/10 14:46:25;;;;;;;1.5;1.3;;;;;;;17.52;32.72852;938.1513;;;;
2023/04/10 14:48:49;;;;;;;1.6;1.4;;;;;;;17.44;33.91797;938.122;;;;
2023/04/10 14:51:14;;;;;;;1.6;1.5;;;;;;;17.14;35.93555;938.1096;;;;
2023/04/10 14:53:39;;;;;;;1.4;1.3;;;;;;;16.89;36.1582;938.1542;;;;
2023/04/10 14:56:07;;;;;;;1.5;1.4;;;;;;;16.86;35.62207;938.1257;;;;
2023/04/10 14:58:32;;;;;;;1.7;1.4;;;;;;;16.9;36.65625;938.0865;;;;
2023/04/10 15:00:58;;;;;;;1.4;1.3;;;;;;;17.06;36.26367;938.02;;;;
2023/04/10 15:03:25;;;;;;;2.4;1.5;;;;;;;17.04;35.60254;938.0331;;;;
2023/04/10 15:05:50;;;;;;;2.1;1.4;;;;;;;16.92;35.57031;937.9969;;;;
2023/04/10 15:08:15;;;;;;;2.1;1.5;;;;;;;16.86;37.0127;938.0114;;;;
2023/04/10 15:10:41;;;;;;;2.2;1.4;;;;;;;16.73;37.58008;937.972;;;;
2023/04/10 15:13:07;;;;;;;1.6;1.5;;;;;;;16.66;38.31641;937.8669;;;;
2023/04/10 15:15:32;;;;;;;1.4;1.3;;;;;;;16.48;36.57617;937.8279;;;;
2023/04/10 15:17:58;;;;;;;1.5;1.4;;;;;;;16.54;35.8623;937.8923;;;;
2023/04/10 15:20:24;;;;;;;1.6;1.5;;;;;;;16.42;36.50098;937.8304;;;;
2023/04/10 15:22:50;;;;;;;1.5;1.4;;;;;;;16.39;36.85742;937.873;;;;
2023/04/10 15:25:15;;;;;;;1.7;1.5;;;;;;;16.34;37.61621;937.8488;;;;
2023/04/10 15:27:42;;;;;;;1.6;1.5;;;;;;;16.39;38.23438;937.8876;;;;
2023/04/10 15:30:07;;;;;;;2.4;1.6;;;;;;;16.49;36.41406;937.8672;;;;
2023/04/10 15:32:32;;;;;;;2;1.8;;;;;;;16.39;38.25781;937.8312;;;;
2023/04/10 15:34:59;;;;;;;1.8;1.7;;;;;;;16.49;36.29883;937.802;;;;
2023/04/10 15:37:24;;;;;;;1.5;1.4;;;;;;;16.24;36.64746;937.8397;;;;
2023/04/10 15:39:51;;;;;;;1.7;1.6;;;;;;;16.37;36.53125;937.822;;;;
2023/04/10 15:42:16;;;;;;;1.7;1.6;;;;;;;16.39;36.33691;937.8103;;;;
2023/04/10 15:44:42;;;;;;;1.8;1.6;;;;;;;16.26;36.77734;937.7872;;;;